createdAt,value
2017-08-22T00:00:00.460Z,0
2017-08-22T00:01:14.615Z,0
2017-08-22T00:02:16.495Z,0
2017-08-22T00:03:18.375Z,0
2017-08-22T00:04:20.259Z,0
2017-08-22T00:05:22.079Z,0
2017-08-22T00:06:23.932Z,0
2017-08-22T00:07:25.803Z,0
2017-08-22T00:08:27.682Z,0
2017-08-22T00:09:29.565Z,0
2017-08-22T00:10:43.770Z,0
2017-08-22T00:11:45.653Z,0
2017-08-22T00:12:47.536Z,0
2017-08-22T00:13:49.422Z,0
2017-08-22T00:14:51.242Z,0
2017-08-22T00:15:53.064Z,0
2017-08-22T00:16:54.947Z,0
2017-08-22T00:17:56.827Z,0
2017-08-22T00:18:58.709Z,0
2017-08-22T00:20:12.864Z,0
2017-08-22T00:21:14.756Z,0
2017-08-22T00:22:16.636Z,0
2017-08-22T00:23:18.516Z,0
2017-08-22T00:24:20.352Z,0
2017-08-22T00:25:22.168Z,0
2017-08-22T00:26:24.049Z,0
2017-08-22T00:27:25.927Z,0
2017-08-22T00:28:27.815Z,0
2017-08-22T00:29:42.031Z,0
2017-08-22T00:30:43.909Z,0
2017-08-22T00:31:45.799Z,0
2017-08-22T00:32:47.678Z,0
2017-08-22T00:33:49.502Z,0
2017-08-22T00:34:51.325Z,0
2017-08-22T00:35:53.206Z,0
2017-08-22T00:36:55.085Z,0
2017-08-22T00:37:56.967Z,0
2017-08-22T00:39:11.125Z,0
2017-08-22T00:40:13.013Z,0
2017-08-22T00:41:14.895Z,0
2017-08-22T00:42:16.775Z,0
2017-08-22T00:43:18.610Z,0
2017-08-22T00:44:20.428Z,0
2017-08-22T00:45:22.317Z,0
2017-08-22T00:46:24.195Z,0
2017-08-22T00:47:26.079Z,0
2017-08-22T00:48:40.235Z,0
2017-08-22T00:49:42.114Z,0
2017-08-22T00:50:43.994Z,0
2017-08-22T00:51:45.874Z,0
2017-08-22T00:52:47.697Z,0
2017-08-22T00:53:49.516Z,0
2017-08-22T00:54:51.394Z,0
2017-08-22T00:55:53.277Z,0
2017-08-22T00:56:55.157Z,0
2017-08-22T00:58:09.313Z,0
2017-08-22T00:59:11.203Z,0
2017-08-22T01:00:13.083Z,0
2017-08-22T01:01:14.969Z,0
2017-08-22T01:02:16.791Z,0
2017-08-22T01:03:18.610Z,0
2017-08-22T01:04:20.498Z,0
2017-08-22T01:05:22.376Z,0
2017-08-22T01:06:24.262Z,0
2017-08-22T01:07:38.418Z,0
2017-08-22T01:08:40.295Z,0
2017-08-22T01:09:42.175Z,0
2017-08-22T01:10:44.066Z,0
2017-08-22T01:11:45.904Z,0
2017-08-22T01:12:47.727Z,0
2017-08-22T01:13:49.616Z,0
2017-08-22T01:14:51.506Z,0
2017-08-22T01:15:53.347Z,0
2017-08-22T01:17:07.503Z,0
2017-08-22T01:18:09.382Z,0
2017-08-22T01:19:11.261Z,0
2017-08-22T01:20:13.152Z,0
2017-08-22T01:21:14.975Z,0
2017-08-22T01:22:16.806Z,0
2017-08-22T01:23:18.687Z,0
2017-08-22T01:24:20.567Z,0
2017-08-22T01:25:22.452Z,0
2017-08-22T01:26:36.665Z,0
2017-08-22T01:27:38.544Z,0
2017-08-22T01:28:40.425Z,0
2017-08-22T01:29:42.312Z,0
2017-08-22T01:30:44.145Z,0
2017-08-22T01:31:45.968Z,0
2017-08-22T01:32:47.857Z,0
2017-08-22T01:33:49.738Z,0
2017-08-22T01:34:51.617Z,0
2017-08-22T01:36:05.817Z,0
2017-08-22T01:37:07.696Z,0
2017-08-22T01:38:09.577Z,0
2017-08-22T01:39:11.454Z,0
2017-08-22T01:40:13.273Z,0
2017-08-22T01:41:15.093Z,0
2017-08-22T01:42:16.968Z,0
2017-08-22T01:43:18.856Z,0
2017-08-22T01:44:20.735Z,0
2017-08-22T01:45:34.884Z,0
2017-08-22T01:46:36.773Z,0
2017-08-22T01:47:38.662Z,0
2017-08-22T01:48:40.539Z,0
2017-08-22T01:49:42.361Z,0
2017-08-22T01:50:44.187Z,0
2017-08-22T01:51:46.079Z,0
2017-08-22T01:52:47.968Z,0
2017-08-22T01:53:49.847Z,0
2017-08-22T01:55:03.996Z,0
2017-08-22T01:56:05.887Z,0
2017-08-22T01:57:07.775Z,0
2017-08-22T01:58:09.657Z,0
2017-08-22T01:59:11.476Z,0
2017-08-22T02:00:13.303Z,0
2017-08-22T02:01:15.190Z,0
2017-08-22T02:02:17.080Z,0
2017-08-22T02:03:18.960Z,0
2017-08-22T02:04:33.125Z,0
2017-08-22T02:05:34.999Z,0
2017-08-22T02:06:36.886Z,0
2017-08-22T02:07:38.775Z,0
2017-08-22T02:08:40.596Z,0
2017-08-22T02:09:42.410Z,0
2017-08-22T02:10:44.293Z,0
2017-08-22T02:11:46.183Z,0
2017-08-22T02:12:48.062Z,0
2017-08-22T02:14:02.213Z,0
2017-08-22T02:15:04.092Z,0
2017-08-22T02:16:05.975Z,0
2017-08-22T02:17:07.866Z,0
2017-08-22T02:18:09.685Z,0
2017-08-22T02:19:11.512Z,0
2017-08-22T02:20:13.391Z,0
2017-08-22T02:21:15.271Z,0
2017-08-22T02:22:17.150Z,0
2017-08-22T02:23:31.301Z,0
2017-08-22T02:24:33.181Z,0
2017-08-22T02:25:35.056Z,0
2017-08-22T02:26:37.211Z,0
2017-08-22T02:27:39.007Z,0
2017-08-22T02:28:40.835Z,0
2017-08-22T02:29:42.711Z,0
2017-08-22T02:30:44.590Z,0
2017-08-22T02:31:46.469Z,0
2017-08-22T02:33:00.620Z,0
2017-08-22T02:34:02.500Z,0
2017-08-22T02:35:04.383Z,0
2017-08-22T02:36:06.258Z,0
2017-08-22T02:37:08.076Z,0
2017-08-22T02:38:09.892Z,0
2017-08-22T02:39:11.771Z,0
2017-08-22T02:40:13.660Z,0
2017-08-22T02:41:15.541Z,0
2017-08-22T02:42:29.689Z,0
2017-08-22T02:43:31.569Z,0
2017-08-22T02:44:33.449Z,0
2017-08-22T02:45:35.329Z,0
2017-08-22T02:46:37.149Z,0
2017-08-22T02:47:38.965Z,0
2017-08-22T02:48:40.842Z,0
2017-08-22T02:49:42.734Z,0
2017-08-22T02:50:44.611Z,0
2017-08-22T02:51:58.819Z,0
2017-08-22T02:53:00.698Z,0
2017-08-22T02:54:02.577Z,0
2017-08-22T02:55:04.454Z,0
2017-08-22T02:56:06.275Z,0
2017-08-22T02:57:08.090Z,0
2017-08-22T02:58:09.967Z,0
2017-08-22T02:59:11.855Z,0
2017-08-22T03:00:13.726Z,0
2017-08-22T03:01:27.925Z,0
2017-08-22T03:02:29.803Z,0
2017-08-22T03:03:31.680Z,0
2017-08-22T03:04:33.557Z,0
2017-08-22T03:05:35.376Z,0
2017-08-22T03:06:37.194Z,0
2017-08-22T03:07:39.032Z,0
2017-08-22T03:08:40.886Z,0
2017-08-22T03:09:42.716Z,0
2017-08-22T03:10:56.864Z,0
2017-08-22T03:11:58.743Z,0
2017-08-22T03:13:00.632Z,0
2017-08-22T03:14:02.525Z,0
2017-08-22T03:15:04.342Z,0
2017-08-22T03:16:06.170Z,0
2017-08-22T03:17:08.049Z,0
2017-08-22T03:18:09.929Z,0
2017-08-22T03:19:11.809Z,0
2017-08-22T03:20:26.007Z,0
2017-08-22T03:21:27.885Z,0
2017-08-22T03:22:29.774Z,0
2017-08-22T03:23:31.652Z,0
2017-08-22T03:24:33.471Z,0
2017-08-22T03:25:35.296Z,0
2017-08-22T03:26:37.185Z,4
2017-08-22T03:27:39.064Z,4
2017-08-22T03:28:40.946Z,0
2017-08-22T03:29:55.097Z,4
2017-08-22T03:30:56.980Z,4
2017-08-22T03:31:58.860Z,4
2017-08-22T03:33:00.741Z,4
2017-08-22T03:34:02.560Z,8
2017-08-22T03:35:04.376Z,8
2017-08-22T03:36:06.260Z,12
2017-08-22T03:37:08.139Z,12
2017-08-22T03:38:10.017Z,12
2017-08-22T03:39:24.175Z,16
2017-08-22T03:40:26.067Z,20
2017-08-22T03:41:27.946Z,24
2017-08-22T03:42:29.829Z,28
2017-08-22T03:43:31.650Z,32
2017-08-22T03:44:33.476Z,36
2017-08-22T03:45:35.353Z,40
2017-08-22T03:46:37.233Z,44
2017-08-22T03:47:39.115Z,52
2017-08-22T03:48:53.280Z,60
2017-08-22T03:49:55.161Z,68
2017-08-22T03:50:57.049Z,76
2017-08-22T03:51:58.944Z,84
2017-08-22T03:53:00.765Z,92
2017-08-22T03:54:02.595Z,104
2017-08-22T03:55:04.473Z,116
2017-08-22T03:56:06.365Z,124
2017-08-22T03:57:08.247Z,132
2017-08-22T03:58:22.398Z,144
2017-08-22T03:59:24.282Z,156
2017-08-22T04:00:26.195Z,172
2017-08-22T04:01:28.068Z,184
2017-08-22T04:02:29.883Z,208
2017-08-22T04:03:31.710Z,232
2017-08-22T04:04:33.590Z,256
2017-08-22T04:05:35.475Z,288
2017-08-22T04:06:37.356Z,320
2017-08-22T04:07:51.520Z,348
2017-08-22T04:08:53.400Z,372
2017-08-22T04:09:55.287Z,388
2017-08-22T04:10:57.167Z,396
2017-08-22T04:11:58.990Z,404
2017-08-22T04:13:00.817Z,408
2017-08-22T04:14:02.696Z,404
2017-08-22T04:15:04.577Z,408
2017-08-22T04:16:06.460Z,412
2017-08-22T04:17:20.623Z,428
2017-08-22T04:18:22.506Z,436
2017-08-22T04:19:24.388Z,452
2017-08-22T04:20:26.290Z,472
2017-08-22T04:21:28.109Z,484
2017-08-22T04:22:29.927Z,496
2017-08-22T04:23:31.779Z,516
2017-08-22T04:24:33.620Z,528
2017-08-22T04:25:35.446Z,548
2017-08-22T04:26:49.596Z,564
2017-08-22T04:27:51.478Z,552
2017-08-22T04:28:53.373Z,532
2017-08-22T04:29:55.271Z,504
2017-08-22T04:30:57.109Z,476
2017-08-22T04:31:58.944Z,452
2017-08-22T04:33:00.824Z,440
2017-08-22T04:34:02.709Z,452
2017-08-22T04:35:04.589Z,480
2017-08-22T04:36:18.745Z,520
2017-08-22T04:37:20.628Z,560
2017-08-22T04:38:22.510Z,596
2017-08-22T04:39:24.404Z,640
2017-08-22T04:40:26.226Z,676
2017-08-22T04:41:28.058Z,712
2017-08-22T04:42:29.940Z,748
2017-08-22T04:43:31.832Z,760
2017-08-22T04:44:33.716Z,764
2017-08-22T04:45:47.880Z,764
2017-08-22T04:46:49.765Z,744
2017-08-22T04:47:51.650Z,740
2017-08-22T04:48:53.534Z,740
2017-08-22T04:49:55.357Z,740
2017-08-22T04:50:57.185Z,760
2017-08-22T04:51:59.076Z,776
2017-08-22T04:53:00.961Z,800
2017-08-22T04:54:02.843Z,832
2017-08-22T04:55:17.055Z,872
2017-08-22T04:56:18.937Z,928
2017-08-22T04:57:20.831Z,1004
2017-08-22T04:58:22.715Z,1088
2017-08-22T04:59:24.550Z,1156
2017-08-22T05:00:26.372Z,1212
2017-08-22T05:01:28.256Z,1244
2017-08-22T05:02:30.152Z,1260
2017-08-22T05:03:32.039Z,1288
2017-08-22T05:04:46.198Z,1364
2017-08-22T05:05:48.078Z,1468
2017-08-22T05:06:49.964Z,1564
2017-08-22T05:07:51.848Z,1640
2017-08-22T05:08:53.685Z,1716
2017-08-22T05:09:55.517Z,1788
2017-08-22T05:10:57.399Z,1848
2017-08-22T05:11:59.286Z,1928
2017-08-22T05:13:01.172Z,2012
2017-08-22T05:14:15.326Z,2092
2017-08-22T05:15:17.210Z,2164
2017-08-22T05:16:19.103Z,2204
2017-08-22T05:17:20.989Z,2260
2017-08-22T05:18:22.826Z,2368
2017-08-22T05:19:24.648Z,2436
2017-08-22T05:20:26.534Z,2492
2017-08-22T05:21:28.429Z,2536
2017-08-22T05:22:30.316Z,2576
2017-08-22T05:23:44.473Z,2580
2017-08-22T05:24:46.358Z,2632
2017-08-22T05:25:48.242Z,2828
2017-08-22T05:26:50.141Z,2944
2017-08-22T05:27:51.966Z,2932
2017-08-22T05:28:53.800Z,2980
2017-08-22T05:29:55.684Z,3220
2017-08-22T05:30:57.568Z,3432
2017-08-22T05:31:59.454Z,3584
2017-08-22T05:33:13.622Z,3600
2017-08-22T05:34:15.505Z,3520
2017-08-22T05:35:17.399Z,3604
2017-08-22T05:36:19.285Z,3916
2017-08-22T05:37:21.122Z,4304
2017-08-22T05:38:22.946Z,4300
2017-08-22T05:39:24.831Z,3908
2017-08-22T05:40:26.676Z,3840
2017-08-22T05:41:28.499Z,3840
2017-08-22T05:42:42.678Z,4132
2017-08-22T05:43:44.567Z,4356
2017-08-22T05:44:46.452Z,4376
2017-08-22T05:45:48.338Z,4172
2017-08-22T05:46:50.162Z,4104
2017-08-22T05:47:51.993Z,4112
2017-08-22T05:48:53.890Z,4088
2017-08-22T05:49:55.772Z,4028
2017-08-22T05:50:57.660Z,3968
2017-08-22T05:52:11.814Z,3804
2017-08-22T05:53:13.700Z,3808
2017-08-22T05:54:15.594Z,3864
2017-08-22T05:55:17.480Z,4096
2017-08-22T05:56:19.316Z,4484
2017-08-22T05:57:21.138Z,4796
2017-08-22T05:58:23.022Z,5136
2017-08-22T05:59:24.908Z,5480
2017-08-22T06:00:26.794Z,5668
2017-08-22T06:01:40.962Z,5908
2017-08-22T06:02:42.847Z,6004
2017-08-22T06:03:44.730Z,6052
2017-08-22T06:04:46.616Z,6136
2017-08-22T06:05:48.440Z,6256
2017-08-22T06:06:50.275Z,6344
2017-08-22T06:07:52.172Z,6452
2017-08-22T06:08:54.060Z,6564
2017-08-22T06:09:55.953Z,6604
2017-08-22T06:11:10.109Z,6624
2017-08-22T06:12:11.997Z,6736
2017-08-22T06:13:13.892Z,6888
2017-08-22T06:14:15.790Z,7012
2017-08-22T06:15:17.618Z,7088
2017-08-22T06:16:19.442Z,7216
2017-08-22T06:17:21.329Z,6960
2017-08-22T06:18:23.215Z,5964
2017-08-22T06:19:25.117Z,4836
2017-08-22T06:20:39.271Z,4232
2017-08-22T06:21:41.157Z,4416
2017-08-22T06:22:43.051Z,4320
2017-08-22T06:23:44.939Z,4180
2017-08-22T06:24:46.764Z,4768
2017-08-22T06:25:48.584Z,5324
2017-08-22T06:26:50.483Z,5384
2017-08-22T06:27:52.366Z,5192
2017-08-22T06:28:54.251Z,4912
2017-08-22T06:30:08.421Z,4576
2017-08-22T06:31:10.308Z,4560
2017-08-22T06:32:12.204Z,4352
2017-08-22T06:33:14.077Z,4312
2017-08-22T06:34:15.902Z,4076
2017-08-22T06:35:17.736Z,3608
2017-08-22T06:36:19.620Z,3112
2017-08-22T06:37:21.508Z,2844
2017-08-22T06:38:23.404Z,2796
2017-08-22T06:39:37.564Z,3072
2017-08-22T06:40:39.450Z,3172
2017-08-22T06:41:41.346Z,3152
2017-08-22T06:42:43.233Z,2992
2017-08-22T06:43:45.059Z,2976
2017-08-22T06:44:46.882Z,2968
2017-08-22T06:45:48.764Z,2816
2017-08-22T06:46:50.664Z,2728
2017-08-22T06:47:52.548Z,2712
2017-08-22T06:49:06.708Z,2804
2017-08-22T06:50:08.593Z,2756
2017-08-22T06:51:10.477Z,2600
2017-08-22T06:52:12.365Z,2636
2017-08-22T06:53:14.191Z,2224
2017-08-22T06:54:16.011Z,2016
2017-08-22T06:55:17.894Z,2268
2017-08-22T06:56:19.791Z,2904
2017-08-22T06:57:21.679Z,3844
2017-08-22T06:58:35.838Z,6052
2017-08-22T06:59:37.727Z,6932
2017-08-22T07:00:39.621Z,7084
2017-08-22T07:01:41.521Z,7232
2017-08-22T07:02:43.347Z,7156
2017-08-22T07:03:45.170Z,7236
2017-08-22T07:04:47.060Z,6292
2017-08-22T07:05:48.959Z,5160
2017-08-22T07:06:50.855Z,4368
2017-08-22T07:08:05.013Z,4136
2017-08-22T07:09:06.899Z,4392
2017-08-22T07:10:08.792Z,4768
2017-08-22T07:11:10.683Z,5372
2017-08-22T07:12:12.510Z,5376
2017-08-22T07:13:14.336Z,5228
2017-08-22T07:14:16.217Z,5304
2017-08-22T07:15:18.113Z,5196
2017-08-22T07:16:20.000Z,4832
2017-08-22T07:17:34.159Z,4288
2017-08-22T07:18:36.044Z,4060
2017-08-22T07:19:37.938Z,3852
2017-08-22T07:20:39.825Z,3948
2017-08-22T07:21:41.653Z,4144
2017-08-22T07:22:43.486Z,4520
2017-08-22T07:23:45.373Z,4632
2017-08-22T07:24:47.258Z,4660
2017-08-22T07:25:49.147Z,4580
2017-08-22T07:27:03.306Z,4912
2017-08-22T07:28:05.192Z,5456
2017-08-22T07:29:07.077Z,6400
2017-08-22T07:30:08.964Z,7268
2017-08-22T07:31:10.792Z,8308
2017-08-22T07:32:12.614Z,9252
2017-08-22T07:33:14.512Z,9996
2017-08-22T07:34:16.410Z,10804
2017-08-22T07:35:18.261Z,11356
2017-08-22T07:36:32.458Z,12060
2017-08-22T07:37:34.346Z,12380
2017-08-22T07:38:36.244Z,12528
2017-08-22T07:39:38.142Z,12760
2017-08-22T07:40:39.973Z,13076
2017-08-22T07:41:41.796Z,13256
2017-08-22T07:42:43.684Z,13532
2017-08-22T07:43:45.584Z,13888
2017-08-22T07:44:47.472Z,13784
2017-08-22T07:46:01.634Z,13048
2017-08-22T07:47:03.523Z,11540
2017-08-22T07:48:05.420Z,10060
2017-08-22T07:49:07.319Z,9092
2017-08-22T07:50:09.147Z,8572
2017-08-22T07:51:10.973Z,8284
2017-08-22T07:52:12.860Z,7424
2017-08-22T07:53:14.747Z,6256
2017-08-22T07:54:16.637Z,5664
2017-08-22T07:55:30.845Z,5576
2017-08-22T07:56:32.735Z,5400
2017-08-22T07:57:34.619Z,5296
2017-08-22T07:58:36.520Z,5376
2017-08-22T07:59:38.350Z,5628
2017-08-22T08:00:40.174Z,6172
2017-08-22T08:01:42.062Z,6652
2017-08-22T08:02:43.951Z,7184
2017-08-22T08:03:45.842Z,7140
2017-08-22T08:05:00.014Z,6068
2017-08-22T08:06:01.901Z,5252
2017-08-22T08:07:03.799Z,5288
2017-08-22T08:08:05.688Z,5148
2017-08-22T08:09:07.525Z,5820
2017-08-22T08:10:09.350Z,6536
2017-08-22T08:11:11.243Z,6416
2017-08-22T08:12:13.130Z,6056
2017-08-22T08:13:15.044Z,5460
2017-08-22T08:14:29.180Z,4328
2017-08-22T08:15:31.067Z,3860
2017-08-22T08:16:32.962Z,4512
2017-08-22T08:17:34.860Z,6020
2017-08-22T08:18:36.688Z,7736
2017-08-22T08:19:38.513Z,8460
2017-08-22T08:20:40.398Z,8684
2017-08-22T08:21:42.301Z,8408
2017-08-22T08:22:44.188Z,8032
2017-08-22T08:23:58.357Z,7020
2017-08-22T08:25:00.245Z,7052
2017-08-22T08:26:02.140Z,8396
2017-08-22T08:27:04.041Z,10280
2017-08-22T08:28:05.868Z,11712
2017-08-22T08:29:07.705Z,12472
2017-08-22T08:30:09.594Z,13060
2017-08-22T08:31:11.482Z,13484
2017-08-22T08:32:13.369Z,13592
2017-08-22T08:33:27.543Z,12792
2017-08-22T08:34:29.431Z,11556
2017-08-22T08:35:31.328Z,10752
2017-08-22T08:36:33.229Z,10200
2017-08-22T08:37:35.056Z,9680
2017-08-22T08:38:36.880Z,9324
2017-08-22T08:39:38.773Z,8996
2017-08-22T08:40:40.661Z,8692
2017-08-22T08:41:42.554Z,8696
2017-08-22T08:42:56.713Z,9108
2017-08-22T08:43:58.600Z,9584
2017-08-22T08:45:00.488Z,10336
2017-08-22T08:46:02.376Z,10824
2017-08-22T08:47:04.209Z,11036
2017-08-22T08:48:06.030Z,11380
2017-08-22T08:49:07.927Z,12052
2017-08-22T08:50:09.818Z,12828
2017-08-22T08:51:11.707Z,13488
2017-08-22T08:52:25.872Z,13940
2017-08-22T08:53:27.761Z,14096
2017-08-22T08:54:29.648Z,14084
2017-08-22T08:55:31.548Z,14216
2017-08-22T08:56:33.379Z,14276
2017-08-22T08:57:35.205Z,14176
2017-08-22T08:58:37.091Z,14012
2017-08-22T08:59:38.994Z,13872
2017-08-22T09:00:40.895Z,13820
2017-08-22T09:01:55.051Z,13620
2017-08-22T09:02:56.940Z,13288
2017-08-22T09:03:58.829Z,12900
2017-08-22T09:05:00.719Z,12724
2017-08-22T09:06:02.548Z,12496
2017-08-22T09:07:04.376Z,12524
2017-08-22T09:08:06.263Z,12708
2017-08-22T09:09:08.155Z,12888
2017-08-22T09:10:10.049Z,13388
2017-08-22T09:11:24.209Z,13580
2017-08-22T09:12:26.101Z,13608
2017-08-22T09:13:27.989Z,13332
2017-08-22T09:14:29.880Z,12812
2017-08-22T09:15:31.713Z,12368
2017-08-22T09:16:33.538Z,11944
2017-08-22T09:17:35.426Z,11884
2017-08-22T09:18:37.316Z,12268
2017-08-22T09:19:39.205Z,12812
2017-08-22T09:20:53.376Z,13336
2017-08-22T09:21:55.262Z,14568
2017-08-22T09:22:57.157Z,15064
2017-08-22T09:23:59.057Z,14740
2017-08-22T09:25:00.888Z,14584
2017-08-22T09:26:02.713Z,13968
2017-08-22T09:27:04.601Z,12648
2017-08-22T09:28:06.492Z,11488
2017-08-22T09:29:08.385Z,12636
2017-08-22T09:30:22.552Z,13948
2017-08-22T09:31:24.444Z,14780
2017-08-22T09:32:26.331Z,15108
2017-08-22T09:33:28.223Z,15164
2017-08-22T09:34:30.068Z,14984
2017-08-22T09:35:31.893Z,15116
2017-08-22T09:36:33.784Z,14948
2017-08-22T09:37:35.676Z,14372
2017-08-22T09:38:37.567Z,14236
2017-08-22T09:39:51.729Z,14312
2017-08-22T09:40:53.618Z,13812
2017-08-22T09:41:55.505Z,13160
2017-08-22T09:42:57.393Z,12340
2017-08-22T09:43:59.224Z,11572
2017-08-22T09:45:01.060Z,11092
2017-08-22T09:46:02.949Z,10748
2017-08-22T09:47:04.839Z,10480
2017-08-22T09:48:06.730Z,10296
2017-08-22T09:49:20.942Z,10268
2017-08-22T09:50:22.829Z,10248
2017-08-22T09:51:24.728Z,10252
2017-08-22T09:52:26.630Z,10244
2017-08-22T09:53:28.458Z,10208
2017-08-22T09:54:30.297Z,10220
2017-08-22T09:55:32.183Z,10284
2017-08-22T09:56:34.075Z,10308
2017-08-22T09:57:35.975Z,10328
2017-08-22T09:58:50.137Z,10364
2017-08-22T09:59:52.025Z,10652
2017-08-22T10:00:53.912Z,11020
2017-08-22T10:01:55.800Z,11736
2017-08-22T10:02:57.646Z,12952
2017-08-22T10:03:59.473Z,14048
2017-08-22T10:05:01.361Z,13296
2017-08-22T10:06:03.262Z,13300
2017-08-22T10:07:05.161Z,13200
2017-08-22T10:08:19.321Z,13540
2017-08-22T10:09:21.209Z,14216
2017-08-22T10:10:23.108Z,14328
2017-08-22T10:11:25.006Z,14240
2017-08-22T10:12:26.839Z,14944
2017-08-22T10:13:28.665Z,15948
2017-08-22T10:14:30.553Z,15740
2017-08-22T10:15:32.453Z,15600
2017-08-22T10:16:34.344Z,15564
2017-08-22T10:17:48.507Z,15208
2017-08-22T10:18:50.416Z,14516
2017-08-22T10:19:52.304Z,13816
2017-08-22T10:20:54.195Z,13744
2017-08-22T10:21:56.026Z,13368
2017-08-22T10:22:57.855Z,12304
2017-08-22T10:23:59.742Z,10792
2017-08-22T10:25:01.641Z,8752
2017-08-22T10:26:03.531Z,7064
2017-08-22T10:27:17.694Z,5732
2017-08-22T10:28:19.579Z,5000
2017-08-22T10:29:21.476Z,4620
2017-08-22T10:30:23.361Z,4244
2017-08-22T10:31:25.187Z,3936
2017-08-22T10:32:27.010Z,3800
2017-08-22T10:33:28.924Z,3904
2017-08-22T10:34:30.786Z,4256
2017-08-22T10:35:32.675Z,4540
2017-08-22T10:36:46.835Z,4792
2017-08-22T10:37:48.727Z,5144
2017-08-22T10:38:50.610Z,5636
2017-08-22T10:39:52.509Z,6520
2017-08-22T10:40:54.350Z,7644
2017-08-22T10:41:56.176Z,8404
2017-08-22T10:42:58.024Z,8660
2017-08-22T10:43:59.852Z,8556
2017-08-22T10:45:01.690Z,8056
2017-08-22T10:46:15.897Z,8232
2017-08-22T10:47:17.793Z,9000
2017-08-22T10:48:19.674Z,9720
2017-08-22T10:49:21.577Z,10260
2017-08-22T10:50:23.408Z,11416
2017-08-22T10:51:25.263Z,12560
2017-08-22T10:52:27.137Z,13184
2017-08-22T10:53:29.027Z,13236
2017-08-22T10:54:30.916Z,13120
2017-08-22T10:55:45.075Z,13076
2017-08-22T10:56:46.966Z,12988
2017-08-22T10:57:48.853Z,12796
2017-08-22T10:58:50.745Z,12480
2017-08-22T10:59:52.575Z,12280
2017-08-22T11:00:54.412Z,12340
2017-08-22T11:01:56.302Z,12236
2017-08-22T11:02:58.192Z,12128
2017-08-22T11:04:00.092Z,11932
2017-08-22T11:05:14.256Z,11928
2017-08-22T11:06:16.149Z,11864
2017-08-22T11:07:18.032Z,11864
2017-08-22T11:08:19.923Z,12036
2017-08-22T11:09:21.752Z,12412
2017-08-22T11:10:23.579Z,12928
2017-08-22T11:11:25.488Z,13716
2017-08-22T11:12:27.368Z,14180
2017-08-22T11:13:29.259Z,14192
2017-08-22T11:14:43.421Z,12956
2017-08-22T11:15:45.311Z,11704
2017-08-22T11:16:47.199Z,10352
2017-08-22T11:17:49.089Z,9112
2017-08-22T11:18:50.921Z,8032
2017-08-22T11:19:52.745Z,7236
2017-08-22T11:20:54.634Z,6672
2017-08-22T11:21:56.535Z,6220
2017-08-22T11:22:58.426Z,5652
2017-08-22T11:24:12.615Z,5276
2017-08-22T11:25:14.480Z,4952
2017-08-22T11:26:16.368Z,4660
2017-08-22T11:27:18.257Z,4152
2017-08-22T11:28:20.086Z,3668
2017-08-22T11:29:21.910Z,3376
2017-08-22T11:30:23.796Z,3264
2017-08-22T11:31:25.698Z,3096
2017-08-22T11:32:27.605Z,2760
2017-08-22T11:33:41.744Z,2296
2017-08-22T11:34:43.629Z,2040
2017-08-22T11:35:45.523Z,1948
2017-08-22T11:36:47.403Z,2080
2017-08-22T11:37:49.240Z,2412
2017-08-22T11:38:51.077Z,2880
2017-08-22T11:39:52.970Z,3444
2017-08-22T11:40:54.853Z,4516
2017-08-22T11:41:56.739Z,5868
2017-08-22T11:43:10.909Z,8268
2017-08-22T11:44:12.799Z,10160
2017-08-22T11:45:14.688Z,10924
2017-08-22T11:46:16.577Z,11528
2017-08-22T11:47:18.403Z,12080
2017-08-22T11:48:20.245Z,12532
2017-08-22T11:49:22.133Z,12996
2017-08-22T11:50:24.024Z,13376
2017-08-22T11:51:25.965Z,13916
2017-08-22T11:52:40.105Z,14736
2017-08-22T11:53:42.005Z,15532
2017-08-22T11:54:43.891Z,16212
2017-08-22T11:55:45.790Z,17120
2017-08-22T11:56:47.613Z,17792
2017-08-22T11:57:49.439Z,18112
2017-08-22T11:58:51.328Z,17952
2017-08-22T11:59:53.231Z,17600
2017-08-22T12:00:55.122Z,16992
2017-08-22T12:02:09.283Z,15668
2017-08-22T12:03:11.173Z,14664
2017-08-22T12:04:13.060Z,13916
2017-08-22T12:05:14.950Z,13372
2017-08-22T12:06:16.821Z,12864
2017-08-22T12:07:18.650Z,12516
2017-08-22T12:08:20.535Z,12576
2017-08-22T12:09:22.406Z,13340
2017-08-22T12:10:24.309Z,14588
2017-08-22T12:11:38.542Z,15516
2017-08-22T12:12:40.436Z,16160
2017-08-22T12:13:42.318Z,16220
2017-08-22T12:14:44.205Z,15928
2017-08-22T12:15:46.034Z,15500
2017-08-22T12:16:47.867Z,15080
2017-08-22T12:17:49.760Z,14876
2017-08-22T12:18:51.695Z,14560
2017-08-22T12:19:53.668Z,14528
2017-08-22T12:21:07.812Z,14584
2017-08-22T12:22:09.700Z,14488
2017-08-22T12:23:11.588Z,14236
2017-08-22T12:24:13.477Z,13856
2017-08-22T12:25:15.309Z,13644
2017-08-22T12:26:17.913Z,13536
2017-08-22T12:27:20.851Z,13280
2017-08-22T12:28:23.199Z,13228
2017-08-22T12:29:25.676Z,13432
2017-08-22T12:30:40.474Z,13868
2017-08-22T12:31:42.909Z,14100
2017-08-22T12:32:45.666Z,14764
2017-08-22T12:33:47.880Z,15080
2017-08-22T12:34:50.048Z,15536
2017-08-22T12:35:52.417Z,15308
2017-08-22T12:36:55.518Z,14756
2017-08-22T12:37:57.729Z,14508
2017-08-22T12:39:00.142Z,14532
2017-08-22T12:40:14.596Z,14616
2017-08-22T12:41:16.899Z,14636
2017-08-22T12:42:19.887Z,14720
2017-08-22T12:43:22.377Z,14992
2017-08-22T12:44:24.722Z,14916
2017-08-22T12:45:26.873Z,14692
2017-08-22T12:46:29.513Z,14992
2017-08-22T12:47:32.253Z,14560
2017-08-22T12:48:34.802Z,14944
2017-08-22T12:49:49.366Z,14976
2017-08-22T12:50:51.616Z,14036
2017-08-22T12:51:53.814Z,12952
2017-08-22T12:52:56.767Z,12612
2017-08-22T12:53:59.316Z,12876
2017-08-22T12:55:01.477Z,13220
2017-08-22T12:56:03.714Z,13804
2017-08-22T12:57:06.365Z,14476
2017-08-22T12:59:38.771Z,14852
2017-08-22T13:00:41.005Z,14828
2017-08-22T13:01:43.586Z,14464
2017-08-22T13:02:46.157Z,13968
2017-08-22T13:03:48.616Z,13376
2017-08-22T13:04:50.770Z,13288
2017-08-22T13:05:53.282Z,13412
2017-08-22T13:06:56.030Z,13800
2017-08-22T13:07:58.825Z,14124
2017-08-22T13:09:13.911Z,14024
2017-08-22T13:10:16.152Z,13864
2017-08-22T13:11:18.967Z,13996
2017-08-22T13:12:21.715Z,14296
2017-08-22T13:13:24.594Z,14476
2017-08-22T13:14:26.747Z,14452
2017-08-22T13:15:29.379Z,14544
2017-08-22T13:16:32.019Z,14524
2017-08-22T13:17:34.449Z,14400
2017-08-22T13:19:54.213Z,14048
2017-08-22T13:20:56.566Z,14192
2017-08-22T13:21:59.048Z,14648
2017-08-22T13:23:01.866Z,14924
2017-08-22T13:24:04.140Z,14752
2017-08-22T13:25:06.698Z,14440
2017-08-22T13:26:09.072Z,13636
2017-08-22T13:27:11.482Z,12864
2017-08-22T13:28:14.508Z,12336
2017-08-22T13:29:29.339Z,12180
2017-08-22T13:30:31.731Z,12104
2017-08-22T13:31:33.952Z,12124
2017-08-22T13:32:36.341Z,12244
2017-08-22T13:33:38.949Z,12372
2017-08-22T13:34:41.116Z,12548
2017-08-22T13:35:43.460Z,12544
2017-08-22T13:36:45.771Z,12508
2017-08-22T13:37:48.222Z,12616
2017-08-22T13:39:03.564Z,13020
2017-08-22T13:40:06.176Z,12904
2017-08-22T13:41:08.389Z,13092
2017-08-22T13:42:10.616Z,13828
2017-08-22T13:43:13.306Z,14212
2017-08-22T13:45:32.901Z,14844
2017-08-22T13:46:35.249Z,14808
2017-08-22T13:47:37.430Z,14756
2017-08-22T13:48:52.309Z,14636
2017-08-22T13:49:55.236Z,14724
2017-08-22T13:50:57.936Z,14900
2017-08-22T13:52:00.196Z,15240
2017-08-22T13:53:02.669Z,15516
2017-08-22T13:54:04.838Z,15892
2017-08-22T13:55:07.805Z,16124
2017-08-22T13:56:10.278Z,16260
2017-08-22T13:57:12.487Z,16284
2017-08-22T13:58:27.048Z,16548
2017-08-22T13:59:29.439Z,16052
2017-08-22T14:00:32.382Z,15636
2017-08-22T14:01:34.910Z,14952
2017-08-22T14:02:37.408Z,14552
2017-08-22T14:03:39.562Z,14212
2017-08-22T14:04:41.980Z,14224
2017-08-22T14:05:44.982Z,14820
2017-08-22T14:06:47.213Z,14176
2017-08-22T14:08:01.705Z,13540
2017-08-22T14:09:04.358Z,13636
2017-08-22T14:10:06.565Z,13948
2017-08-22T14:12:26.144Z,13956
2017-08-22T14:13:28.677Z,13956
2017-08-22T14:14:31.006Z,13400
2017-08-22T14:15:33.318Z,13168
2017-08-22T14:16:36.140Z,12940
2017-08-22T14:17:50.808Z,12672
2017-08-22T14:18:52.822Z,12108
2017-08-22T14:19:55.036Z,11384
2017-08-22T14:20:57.255Z,10504
2017-08-22T14:22:00.169Z,9640